Time;durP1;ratioP1;P1;durP2;ratioP2;P2;SDS_P1;SDS_P2;PMS_P1;PMS_P2;Temp;Humidity;BMP_temperature;BMP_pressure;BME280_temperature;BME280_humidity;BME280_pressure;Samples;Min_cycle;Max_cycle;Signal;HPM_P1;HPM_P2
2022/07/13 00:01:39;;;;;;;6.22;4.10;;;;;;;23.96;54.12;102081.53;5132711;28;20019;-64
2022/07/13 00:04:05;;;;;;;4.82;3.58;;;;;;;23.97;54.27;102075.25;5133143;28;20027;-64
2022/07/13 00:06:30;;;;;;;4.80;3.45;;;;;;;23.96;54.14;102084.22;5133275;28;20023;-64
2022/07/13 00:08:55;;;;;;;5.50;3.67;;;;;;;23.96;53.89;102079.75;5132488;28;20024;-63
2022/07/13 00:11:20;;;;;;;6.50;3.87;;;;;;;23.95;54.23;102070.06;5133142;28;20340;-63
2022/07/13 00:13:46;;;;;;;5.53;3.75;;;;;;;23.94;53.78;102049.75;5132601;28;20264;-63
2022/07/13 00:16:11;;;;;;;5.27;3.37;;;;;;;23.95;53.89;102051.41;5133029;28;20054;-63
2022/07/13 00:18:36;;;;;;;4.80;3.10;;;;;;;23.94;54.06;102043.56;5133304;28;20282;-63
2022/07/13 00:21:01;;;;;;;5.45;3.50;;;;;;;23.94;53.61;102039.09;5132167;28;20675;-63
2022/07/13 00:23:33;;;;;;;4.97;3.70;;;;;;;23.94;53.78;102041.78;5133425;28;20019;-63
2022/07/13 00:25:58;;;;;;;5.55;3.90;;;;;;;23.94;53.69;102036.44;5133164;28;20275;-63
2022/07/13 00:28:23;;;;;;;4.93;3.50;;;;;;;23.94;53.80;102032.91;5132614;28;20046;-64
2022/07/13 00:30:49;;;;;;;5.97;3.70;;;;;;;23.94;53.56;102027.59;5133199;28;20370;-64
2022/07/13 00:33:17;;;;;;;4.88;3.15;;;;;;;23.93;53.49;102039.25;5133123;28;20394;-63
2022/07/13 00:35:42;;;;;;;5.15;3.40;;;;;;;23.92;53.50;102035.72;5132320;28;20025;-64
2022/07/13 00:38:28;;;;;;;5.70;3.77;;;;;;;23.92;53.76;102026.91;5133032;28;20113;-64
2022/07/13 00:40:53;;;;;;;5.03;3.42;;;;;;;23.93;53.70;102020.59;5132529;28;20031;-64
2022/07/13 00:43:19;;;;;;;5.53;3.88;;;;;;;23.92;53.13;102006.44;5132273;28;20536;-64
2022/07/13 00:45:50;;;;;;;5.77;3.33;;;;;;;23.93;53.19;102001.97;5133269;28;20030;-64
2022/07/13 00:48:15;;;;;;;5.10;3.22;;;;;;;23.92;53.26;102002.94;5134317;27;20278;-65
2022/07/13 00:50:41;;;;;;;5.47;3.45;;;;;;;23.92;53.60;102000.28;5136161;27;20019;-65
2022/07/13 00:53:06;;;;;;;4.50;3.10;;;;;;;23.91;53.54;101996.78;5136512;27;20356;-64
2022/07/13 00:55:32;;;;;;;5.68;3.47;;;;;;;23.91;53.12;101991.47;5136715;27;20081;-64
2022/07/13 00:57:58;;;;;;;5.10;3.67;;;;;;;23.90;53.66;101993.25;5135652;27;20023;-64
2022/07/13 01:00:24;;;;;;;5.95;3.83;;;;;;;23.90;53.41;101995.91;5136569;27;20026;-64
2022/07/13 01:02:52;;;;;;;5.50;3.65;;;;;;;23.90;53.20;101989.75;5135863;27;20027;-64
2022/07/13 01:05:18;;;;;;;4.75;3.10;;;;;;;23.90;53.46;101993.25;5136260;27;20019;-65
2022/07/13 01:07:44;;;;;;;4.73;3.27;;;;;;;23.92;53.49;101984.31;5133116;27;20031;-64
2022/07/13 01:10:11;;;;;;;5.13;3.50;;;;;;;23.90;53.37;101985.28;5135054;27;20272;-64
2022/07/13 01:12:38;;;;;;;4.88;3.30;;;;;;;23.92;53.43;101986.97;5136400;27;20054;-64
2022/07/13 01:15:08;;;;;;;6.00;3.70;;;;;;;23.91;53.01;101994.13;5135915;27;20030;-64
2022/07/13 01:17:35;;;;;;;4.80;3.38;;;;;;;23.90;53.41;101990.59;5135360;27;20059;-64
2022/07/13 01:20:02;;;;;;;5.85;2.85;;;;;;;23.90;53.27;101989.75;5135979;27;20027;-65
2022/07/13 01:22:47;;;;;;;4.75;3.45;;;;;;;23.90;53.10;101985.28;5136200;27;20034;-64
2022/07/13 01:25:14;;;;;;;5.20;3.47;;;;;;;23.90;53.23;101985.28;5135084;27;20023;-64
2022/07/13 01:27:44;;;;;;;4.80;3.22;;;;;;;23.90;53.20;101981.78;5136005;27;20035;-64
2022/07/13 01:30:09;;;;;;;5.00;3.40;;;;;;;23.90;52.92;101979.94;5135831;27;20019;-64
2022/07/13 01:32:50;;;;;;;4.90;2.95;;;;;;;23.90;53.28;101979.13;5135214;27;20019;-64
2022/07/13 01:35:17;;;;;;;4.60;3.20;;;;;;;23.90;52.88;101981.78;5134472;27;20554;-64
2022/07/13 01:37:43;;;;;;;5.13;3.30;;;;;;;23.89;52.81;101980.94;5135820;27;20084;-64
2022/07/13 01:40:13;;;;;;;4.18;2.83;;;;;;;23.87;53.28;101974.88;5134993;27;20038;-64
2022/07/13 01:42:43;;;;;;;5.32;3.20;;;;;;;23.89;52.92;101978.28;5135796;27;20033;-64
2022/07/13 01:45:21;;;;;;;5.22;3.33;;;;;;;23.89;53.29;101972.09;5134669;27;20027;-64
2022/07/13 01:47:49;;;;;;;4.50;2.92;;;;;;;23.89;53.14;101969.44;5135668;27;20058;-64
2022/07/13 01:50:16;;;;;;;4.53;3.20;;;;;;;23.89;52.79;101980.94;5135614;27;20106;-64
2022/07/13 01:52:42;;;;;;;4.78;3.40;;;;;;;23.89;53.11;101977.41;5134599;27;20019;-64
2022/07/13 01:55:09;;;;;;;4.80;3.05;;;;;;;23.89;52.59;101982.75;5135232;27;20496;-64
2022/07/13 01:57:35;;;;;;;4.85;3.10;;;;;;;23.88;52.64;101973.94;5135884;27;20030;-64
2022/07/13 02:00:09;;;;;;;4.75;3.00;;;;;;;23.89;52.98;101975.63;5134253;27;20031;-64
2022/07/13 02:02:34;;;;;;;5.07;2.92;;;;;;;23.88;52.85;101979.25;5135476;27;20042;-64
2022/07/13 02:04:59;;;;;;;4.40;2.85;;;;;;;23.88;52.60;101975.75;5134941;27;20023;-64
2022/07/13 02:07:25;;;;;;;5.20;3.07;;;;;;;23.88;52.76;101965.94;5134321;27;20382;-64
2022/07/13 02:09:50;;;;;;;5.15;2.95;;;;;;;23.88;52.83;101957.94;5135049;27;20273;-64
2022/07/13 02:12:17;;;;;;;4.68;3.10;;;;;;;23.88;52.50;101957.94;5134679;27;20035;-64
2022/07/13 02:14:46;;;;;;;4.70;2.90;;;;;;;23.89;52.43;101956.13;5134415;27;20051;-64
2022/07/13 02:17:11;;;;;;;5.40;3.03;;;;;;;23.88;52.47;101952.63;5134915;27;20076;-64
2022/07/13 02:19:37;;;;;;;4.70;2.83;;;;;;;23.87;52.44;101950.94;5134801;27;20023;-64
2022/07/13 02:22:02;;;;;;;4.60;2.70;;;;;;;23.87;52.76;101942.13;5133711;27;20035;-64
2022/07/13 02:24:27;;;;;;;4.40;3.08;;;;;;;23.87;52.27;101940.28;5134997;27;20321;-64
2022/07/13 02:26:53;;;;;;;4.93;3.00;;;;;;;23.88;52.21;101943.81;5134630;27;20019;-64
2022/07/13 02:29:18;;;;;;;4.72;3.00;;;;;;;23.87;52.28;101947.44;5134082;27;20796;-64
2022/07/13 02:31:43;;;;;;;5.30;3.00;;;;;;;23.86;52.45;101943.09;5134753;27;20021;-64
2022/07/13 02:34:08;;;;;;;5.20;3.30;;;;;;;23.87;52.17;101936.78;5134358;27;20042;-64
2022/07/13 02:36:34;;;;;;;5.22;2.78;;;;;;;23.87;52.13;101931.47;5133716;27;20291;-64
2022/07/13 02:38:59;;;;;;;4.82;2.83;;;;;;;23.86;52.38;101924.44;5134426;27;20098;-64
2022/07/13 02:41:24;;;;;;;4.22;2.95;;;;;;;23.87;52.45;101931.47;5115318;27;20389;-64
2022/07/13 02:43:50;;;;;;;4.90;3.00;;;;;;;23.86;51.83;101938.63;5134164;27;20472;-64
2022/07/13 02:46:15;;;;;;;5.57;3.10;;;;;;;23.86;52.03;101933.28;5134560;27;20023;-64
2022/07/13 02:48:40;;;;;;;4.60;3.20;;;;;;;23.86;52.35;101920.00;5133666;27;20095;-64
2022/07/13 02:51:05;;;;;;;5.40;2.87;;;;;;;23.86;52.15;101904.00;5134079;27;20386;-64
2022/07/13 02:53:31;;;;;;;4.75;2.90;;;;;;;23.87;52.25;101902.19;5134225;27;20267;-64
2022/07/13 02:55:56;;;;;;;5.22;2.88;;;;;;;23.86;51.95;101922.66;5133200;27;20057;-64
2022/07/13 02:58:21;;;;;;;4.60;3.20;;;;;;;23.85;51.85;101920.97;5134205;27;20098;-64
2022/07/13 03:00:50;;;;;;;4.53;2.83;;;;;;;23.86;51.89;101924.44;5134227;27;20263;-64
2022/07/13 03:03:16;;;;;;;4.85;2.85;;;;;;;23.86;52.19;101916.47;5133144;27;20019;-64
2022/07/13 03:05:41;;;;;;;4.88;2.83;;;;;;;23.86;52.16;101927.13;5134006;27;20027;-64
2022/07/13 03:08:06;;;;;;;5.13;3.08;;;;;;;23.86;52.30;101921.78;5133728;27;20106;-64
2022/07/13 03:10:31;;;;;;;5.07;2.92;;;;;;;23.85;51.98;101928.94;5132320;27;20039;-64
2022/07/13 03:12:58;;;;;;;5.67;2.83;;;;;;;23.85;52.07;101931.59;5133937;27;20019;-63
2022/07/13 03:15:23;;;;;;;4.10;2.50;;;;;;;23.85;51.77;101934.25;5134029;27;20308;-64
2022/07/13 03:17:49;;;;;;;4.72;2.80;;;;;;;23.85;52.25;101928.09;5133168;27;20023;-64
2022/07/13 03:20:17;;;;;;;4.55;2.40;;;;;;;23.85;52.05;101928.09;5133975;27;20428;-64
2022/07/13 03:22:42;;;;;;;4.22;2.70;;;;;;;23.85;51.81;101925.44;5133617;27;20473;-64
2022/07/13 03:25:13;;;;;;;4.97;2.90;;;;;;;23.86;52.32;101924.44;5132853;27;20023;-64
2022/07/13 03:27:38;;;;;;;5.18;3.03;;;;;;;23.85;52.06;101918.28;5133935;27;20026;-64
2022/07/13 03:30:07;;;;;;;4.55;2.80;;;;;;;23.84;52.31;101916.59;5133407;27;20019;-64
2022/07/13 03:32:33;;;;;;;5.07;2.80;;;;;;;23.85;52.25;101914.81;5132813;27;20115;-64
2022/07/13 03:34:58;;;;;;;4.90;2.50;;;;;;;23.85;52.06;101914.81;5133364;27;20534;-64
2022/07/13 03:37:26;;;;;;;6.07;3.00;;;;;;;23.84;52.24;101905.94;5133798;28;20034;-64
2022/07/13 03:39:51;;;;;;;4.15;2.58;;;;;;;23.84;51.81;101915.75;5132596;28;20489;-64
2022/07/13 03:42:18;;;;;;;5.03;2.72;;;;;;;23.86;51.76;101916.47;5133673;28;20019;-64
2022/07/13 03:44:44;;;;;;;4.55;2.88;;;;;;;23.85;52.14;101914.81;5132859;28;20096;-64
2022/07/13 03:47:09;;;;;;;4.87;2.73;;;;;;;23.84;52.05;101911.28;5133402;28;20058;-64
2022/07/13 03:49:37;;;;;;;4.07;2.60;;;;;;;23.84;52.18;101903.28;5133941;28;20267;-64
2022/07/13 03:52:03;;;;;;;3.80;2.40;;;;;;;23.84;51.84;101908.63;5132552;28;20023;-64
2022/07/13 03:54:28;;;;;;;5.20;2.78;;;;;;;23.84;52.20;101910.44;5133670;28;20535;-64
2022/07/13 03:56:53;;;;;;;4.63;2.70;;;;;;;23.84;52.13;101907.78;5133234;28;20049;-65
2022/07/13 03:59:18;;;;;;;5.03;2.90;;;;;;;23.83;52.06;101906.94;5132738;28;20279;-64
2022/07/13 04:01:43;;;;;;;4.27;2.67;;;;;;;23.84;52.19;101902.47;5133327;28;20306;-64
2022/07/13 04:04:09;;;;;;;5.03;2.60;;;;;;;23.83;51.80;101909.63;5132972;28;20287;-62
2022/07/13 04:06:34;;;;;;;5.45;2.58;;;;;;;23.84;51.58;101911.28;5132740;28;20796;-63
2022/07/13 04:08:59;;;;;;;4.63;2.50;;;;;;;23.83;51.60;101904.28;5133152;28;20538;-63
2022/07/13 04:11:28;;;;;;;3.87;2.60;;;;;;;23.84;51.53;101905.94;5133002;28;20050;-62
2022/07/13 04:13:53;;;;;;;5.00;2.70;;;;;;;23.83;51.71;101903.41;5132171;28;20275;-62
2022/07/13 04:16:21;;;;;;;4.75;2.70;;;;;;;23.84;51.94;101910.44;5133258;28;20030;-62
2022/07/13 04:18:46;;;;;;;4.10;2.78;;;;;;;23.82;51.54;101902.56;5133057;28;20079;-62
2022/07/13 04:21:13;;;;;;;4.03;2.63;;;;;;;23.83;51.97;101893.63;5132417;28;20031;-63
2022/07/13 04:23:39;;;;;;;4.00;2.55;;;;;;;23.82;52.02;101897.25;5136585;27;20784;-62
2022/07/13 04:26:05;;;;;;;4.88;2.70;;;;;;;23.84;51.88;101897.97;5137003;27;20058;-63
2022/07/13 04:28:30;;;;;;;4.20;2.70;;;;;;;23.83;51.84;101887.41;5136161;27;20027;-63
2022/07/13 04:30:55;;;;;;;5.43;2.83;;;;;;;23.84;51.48;101883.81;5136587;27;20027;-63
2022/07/13 04:33:20;;;;;;;4.60;2.50;;;;;;;23.83;51.88;101885.66;5136802;27;20471;-63
2022/07/13 04:35:46;;;;;;;5.80;2.50;;;;;;;23.83;51.81;101888.31;5136316;27;20318;-63
2022/07/13 04:38:12;;;;;;;4.53;2.83;;;;;;;23.84;51.87;101882.00;5136581;27;20064;-63
2022/07/13 04:40:38;;;;;;;4.22;2.53;;;;;;;23.84;51.41;101883.81;5136784;27;20047;-63
2022/07/13 04:43:04;;;;;;;4.85;2.95;;;;;;;23.83;51.38;101883.00;5135603;27;20019;-63
2022/07/13 04:45:29;;;;;;;4.15;2.50;;;;;;;23.83;51.81;101880.34;5136423;27;20027;-64
2022/07/13 04:47:54;;;;;;;4.70;3.00;;;;;;;23.83;51.85;101880.34;5136170;27;20056;-64
2022/07/13 04:50:19;;;;;;;4.38;2.63;;;;;;;23.83;51.87;101885.66;5136017;27;20023;-64
2022/07/13 04:52:45;;;;;;;4.88;2.75;;;;;;;23.83;51.47;101885.66;5136548;27;20039;-64
2022/07/13 04:55:10;;;;;;;4.57;2.57;;;;;;;23.83;51.66;101885.66;5135535;27;20050;-64
2022/07/13 04:57:36;;;;;;;3.83;2.42;;;;;;;23.84;51.61;101881.16;5136667;27;20627;-64
2022/07/13 05:00:07;;;;;;;4.45;2.60;;;;;;;23.83;52.06;101877.66;5136073;27;20160;-65
2022/07/13 05:02:32;;;;;;;4.65;2.85;;;;;;;23.84;51.81;101882.00;5135506;27;20094;-64
2022/07/13 05:04:57;;;;;;;4.05;2.60;;;;;;;23.84;52.05;101879.34;5136198;27;20431;-65
2022/07/13 05:07:23;;;;;;;4.60;2.90;;;;;;;23.83;51.76;101875.00;5136271;27;20031;-64
2022/07/13 05:09:48;;;;;;;5.05;2.55;;;;;;;23.85;51.94;101877.53;5135355;27;20271;-64
2022/07/13 05:12:13;;;;;;;5.33;2.60;;;;;;;23.84;51.39;101875.84;5135725;27;20043;-65
2022/07/13 05:14:39;;;;;;;4.67;2.80;;;;;;;23.83;51.91;101880.34;5136045;27;20629;-64
2022/07/13 05:17:04;;;;;;;6.00;2.75;;;;;;;23.84;51.90;101879.34;5134851;27;20272;-64
2022/07/13 05:19:29;;;;;;;4.18;2.78;;;;;;;23.83;51.82;101885.66;5136290;27;20106;-64
2022/07/13 05:21:57;;;;;;;5.40;2.67;;;;;;;23.84;51.71;101878.50;5135879;27;20489;-64
2022/07/13 05:24:23;;;;;;;4.95;2.67;;;;;;;23.83;51.67;101877.66;5135072;27;20279;-64
2022/07/13 05:26:48;;;;;;;5.32;2.70;;;;;;;23.83;51.58;101874.13;5135814;27;20033;-65
2022/07/13 05:29:13;;;;;;;6.10;2.80;;;;;;;23.83;51.80;101882.09;5135648;27;20470;-64
2022/07/13 05:31:38;;;;;;;5.17;2.70;;;;;;;23.84;51.92;101882.00;5134940;27;20358;-65
2022/07/13 05:34:04;;;;;;;5.23;2.60;;;;;;;23.83;51.40;101875.00;5134611;27;20271;-64
2022/07/13 05:36:34;;;;;;;3.90;2.55;;;;;;;23.83;51.69;101887.41;5135591;27;20323;-65
2022/07/13 05:39:00;;;;;;;4.90;2.50;;;;;;;23.84;51.84;101884.66;5134839;27;20076;-64
2022/07/13 05:41:25;;;;;;;4.23;2.60;;;;;;;23.84;51.74;101889.16;5135597;27;20101;-64
2022/07/13 05:43:50;;;;;;;5.07;2.65;;;;;;;23.83;51.53;101882.09;5135226;27;20058;-64
2022/07/13 05:46:16;;;;;;;4.63;2.60;;;;;;;23.82;51.61;101881.28;5134737;27;20417;-64
2022/07/13 05:48:41;;;;;;;4.50;2.70;;;;;;;23.84;51.80;101889.97;5135429;27;20034;-65
2022/07/13 05:51:06;;;;;;;4.97;2.57;;;;;;;23.84;51.36;101889.16;5135261;27;20023;-65
2022/07/13 05:53:31;;;;;;;4.23;2.50;;;;;;;23.84;51.17;101895.31;5134807;27;20027;-64
2022/07/13 05:55:57;;;;;;;4.47;2.60;;;;;;;23.84;51.67;101903.28;5135075;27;20761;-64
2022/07/13 05:58:22;;;;;;;5.35;2.55;;;;;;;23.84;51.53;101894.47;5134543;27;20271;-64
2022/07/13 06:00:50;;;;;;;4.80;2.60;;;;;;;23.85;51.37;101898.84;5135221;27;20101;-64
2022/07/13 06:03:15;;;;;;;4.72;2.67;;;;;;;23.86;51.70;101903.16;5134950;27;20500;-64
2022/07/13 06:05:40;;;;;;;4.50;2.60;;;;;;;23.86;51.63;101908.47;5134505;27;20027;-64
2022/07/13 06:08:06;;;;;;;4.60;2.42;;;;;;;23.86;51.33;101897.84;5134915;27;20047;-64
2022/07/13 06:10:31;;;;;;;4.27;2.57;;;;;;;23.85;51.65;101894.34;5134842;27;20103;-64
2022/07/13 06:12:56;;;;;;;4.05;2.40;;;;;;;23.85;51.83;101896.16;5133904;27;20354;-64
2022/07/13 06:15:22;;;;;;;4.97;2.67;;;;;;;23.86;51.54;101887.19;5134187;27;20497;-64
2022/07/13 06:17:47;;;;;;;4.35;2.50;;;;;;;23.86;51.38;101908.47;5135015;27;20038;-64
2022/07/13 06:20:12;;;;;;;5.82;2.30;;;;;;;23.87;51.50;101913.66;5133868;27;20027;-64
2022/07/13 06:22:37;;;;;;;5.05;2.45;;;;;;;23.86;51.80;101914.66;5134848;27;20030;-64
2022/07/13 06:25:03;;;;;;;4.70;2.40;;;;;;;23.85;51.57;101901.50;5134407;27;20027;-64
2022/07/13 06:27:29;;;;;;;4.30;2.55;;;;;;;23.87;51.85;101899.53;5133863;27;20267;-61
2022/07/13 06:29:54;;;;;;;4.55;2.53;;;;;;;23.86;51.54;101896.03;5134271;27;20424;-62
2022/07/13 06:32:19;;;;;;;4.55;2.67;;;;;;;23.86;50.85;101901.34;5134774;27;20054;-62
2022/07/13 06:34:47;;;;;;;4.67;2.63;;;;;;;23.94;50.45;101903.34;5133870;27;20050;-62
2022/07/13 06:37:13;;;;;;;6.85;3.22;;;;;;;23.98;51.40;101901.22;5134458;27;20263;-62
2022/07/13 06:39:38;;;;;;;4.82;2.50;;;;;;;23.98;50.93;101907.38;5134691;27;20019;-63
2022/07/13 06:42:10;;;;;;;6.97;3.25;;;;;;;23.97;50.36;101900.38;5133437;27;20023;-64
2022/07/13 06:44:35;;;;;;;6.32;3.08;;;;;;;23.98;51.46;101898.56;5134519;27;20411;-64
2022/07/13 06:47:00;;;;;;;6.45;3.03;;;;;;;23.96;51.94;101900.50;5133983;27;20061;-63
2022/07/13 06:49:28;;;;;;;5.53;2.73;;;;;;;23.93;52.91;101901.63;5133708;27;20026;-63
2022/07/13 06:51:55;;;;;;;8.13;2.78;;;;;;;23.91;52.25;101892.97;5134121;27;20271;-63
2022/07/13 06:54:23;;;;;;;8.07;2.80;;;;;;;23.89;51.91;101890.44;5134333;27;20023;-63
2022/07/13 06:56:49;;;;;;;6.15;2.60;;;;;;;23.89;52.04;101893.09;5133564;27;20072;-63
2022/07/13 06:59:14;;;;;;;4.50;2.63;;;;;;;23.93;51.40;101896.31;5134302;27;20015;-64
2022/07/13 07:01:39;;;;;;;6.32;2.60;;;;;;;23.96;51.17;101889.84;5133359;27;20023;-64
2022/07/13 07:04:05;;;;;;;6.13;2.63;;;;;;;23.94;51.86;101889.16;5133768;27;20038;-64
2022/07/13 07:06:30;;;;;;;8.00;3.23;;;;;;;23.94;52.33;101891.81;5134197;27;20035;-63
2022/07/13 07:08:56;;;;;;;9.68;3.33;;;;;;;24.00;51.96;101899.25;5132130;27;20398;-64
2022/07/13 07:11:21;;;;;;;6.18;2.80;;;;;;;24.00;52.17;101908.06;5133925;27;20035;-64
2022/07/13 07:13:46;;;;;;;5.03;2.50;;;;;;;24.00;52.61;101901.91;5133884;27;20034;-65
2022/07/13 07:16:12;;;;;;;5.90;3.00;;;;;;;24.00;52.76;101900.09;5132988;27;20314;-65
2022/07/13 07:18:38;;;;;;;9.30;2.93;;;;;;;23.99;51.91;101908.22;5133821;27;20054;-63
2022/07/13 07:21:03;;;;;;;8.85;3.05;;;;;;;23.98;52.64;101904.72;5133534;27;20305;-63
2022/07/13 07:23:28;;;;;;;6.93;2.97;;;;;;;24.01;53.42;101895.63;5132970;27;20023;-63
2022/07/13 07:25:54;;;;;;;5.35;2.75;;;;;;;24.03;52.84;101899.00;5133363;27;20023;-65
2022/07/13 07:28:19;;;;;;;5.13;2.70;;;;;;;24.01;52.87;101904.44;5133652;27;20068;-64
2022/07/13 07:30:44;;;;;;;7.17;2.60;;;;;;;23.92;53.29;101893.78;5132908;27;20290;-64
2022/07/13 07:33:09;;;;;;;5.43;2.58;;;;;;;23.89;53.45;101903.75;5133552;27;20115;-65
2022/07/13 07:35:35;;;;;;;5.25;2.65;;;;;;;23.89;52.57;101894.91;5133749;28;20064;-65
2022/07/13 07:38:00;;;;;;;5.82;2.92;;;;;;;23.88;52.93;101888.75;5132624;28;20088;-64
2022/07/13 07:40:26;;;;;;;5.03;2.50;;;;;;;23.89;53.08;101884.25;5134184;28;20036;-64
2022/07/13 07:42:54;;;;;;;5.20;2.50;;;;;;;23.89;53.26;101890.44;5133268;28;20059;-64
2022/07/13 07:45:19;;;;;;;5.32;2.60;;;;;;;23.92;52.85;101886.63;5132815;28;20019;-64
2022/07/13 07:47:44;;;;;;;5.80;2.72;;;;;;;23.94;53.22;101889.16;5133651;28;20038;-64
2022/07/13 07:50:10;;;;;;;4.90;2.90;;;;;;;23.96;53.67;101897.84;5133154;28;20027;-64
2022/07/13 07:52:35;;;;;;;5.93;2.72;;;;;;;23.98;53.98;101901.22;5132702;28;20275;-64
2022/07/13 07:55:00;;;;;;;5.85;3.03;;;;;;;24.00;53.35;101894.75;5133209;28;20023;-64
2022/07/13 07:57:26;;;;;;;4.57;2.67;;;;;;;24.01;53.65;101890.31;5134952;27;20504;-64
2022/07/13 07:59:51;;;;;;;5.25;2.65;;;;;;;24.00;53.59;101889.44;5136871;27;20405;-66
2022/07/13 08:02:17;;;;;;;4.88;2.60;;;;;;;24.01;53.62;101880.50;5137722;27;20018;-65
2022/07/13 08:04:42;;;;;;;5.82;2.67;;;;;;;24.01;53.54;101885.81;5137491;27;20046;-66
2022/07/13 08:07:08;;;;;;;4.55;2.65;;;;;;;24.02;53.90;101884.84;5136457;27;20032;-66
2022/07/13 08:09:34;;;;;;;4.30;2.75;;;;;;;24.02;53.37;101891.97;5136233;27;20470;-66
2022/07/13 08:12:00;;;;;;;5.47;2.85;;;;;;;24.04;53.63;101888.19;5136057;27;20047;-67
2022/07/13 08:14:26;;;;;;;5.50;3.00;;;;;;;24.04;53.96;101895.34;5137642;27;20094;-64
2022/07/13 08:16:51;;;;;;;4.97;2.78;;;;;;;24.06;54.42;101901.38;5137007;27;20011;-66
2022/07/13 08:19:16;;;;;;;4.45;2.72;;;;;;;24.04;54.02;101890.84;5136681;27;20440;-66
2022/07/13 08:21:42;;;;;;;6.13;2.93;;;;;;;24.05;54.04;101897.00;5137416;27;20480;-65
2022/07/13 08:24:07;;;;;;;4.87;2.43;;;;;;;24.05;53.84;101894.34;5136763;27;20301;-67
2022/07/13 08:26:32;;;;;;;7.22;2.58;;;;;;;24.06;53.88;101902.19;5136357;27;20271;-66
2022/07/13 08:28:59;;;;;;;5.50;2.60;;;;;;;24.08;53.97;101908.25;5136934;27;20046;-66
2022/07/13 08:31:25;;;;;;;5.65;2.72;;;;;;;24.08;54.12;101902.94;5136973;27;20374;-65
2022/07/13 08:39:24;;;;;;;5.30;2.65;;;;;;;24.09;53.95;101904.59;5137886;27;20472;-66
2022/07/13 08:41:52;;;;;;;6.32;3.08;;;;;;;24.15;53.61;101908.53;5135816;27;20023;-67
2022/07/13 08:44:18;;;;;;;9.88;2.70;;;;;;;24.19;53.75;101901.94;5136858;27;20031;-66
2022/07/13 08:46:44;;;;;;;5.95;2.85;;;;;;;24.24;53.28;101905.03;5136882;27;20412;-68
2022/07/13 08:49:09;;;;;;;4.93;2.78;;;;;;;24.30;53.35;101910.78;5135567;27;20031;-65
2022/07/13 08:51:35;;;;;;;9.95;2.80;;;;;;;24.31;53.34;101907.13;5136587;27;20023;-64
2022/07/13 08:54:04;;;;;;;6.20;2.67;;;;;;;24.31;53.45;101904.44;5136539;27;20026;-64
2022/07/13 08:56:30;;;;;;;4.18;2.35;;;;;;;24.34;53.61;101907.69;5136193;27;20030;-64
2022/07/13 08:58:56;;;;;;;5.65;2.58;;;;;;;24.33;53.49;101897.19;5136414;27;20462;-64
2022/07/13 09:01:21;;;;;;;4.95;2.50;;;;;;;24.32;53.11;101900.81;5135674;27;20030;-64
2022/07/13 09:03:47;;;;;;;4.20;2.50;;;;;;;24.33;53.00;101915.84;5136420;27;20581;-64
2022/07/13 09:06:42;;;;;;;5.45;2.65;;;;;;;24.33;52.98;101918.50;5135932;27;20052;-64
2022/07/13 09:09:31;;;;;;;4.35;2.30;;;;;;;24.33;53.30;101921.16;5134077;27;20186;-64
2022/07/13 09:12:17;;;;;;;4.30;2.60;;;;;;;24.33;53.22;101926.50;5135705;27;20498;-64
2022/07/13 09:14:48;;;;;;;5.47;2.22;;;;;;;24.34;53.34;101925.50;5136519;27;20450;-64
2022/07/13 09:17:36;;;;;;;6.88;2.53;;;;;;;24.32;53.46;101914.13;5135062;27;20092;-64
2022/07/13 09:20:14;;;;;;;3.88;2.30;;;;;;;24.33;53.13;101922.00;5135789;27;20027;-64
2022/07/13 09:22:50;;;;;;;4.18;2.40;;;;;;;24.33;53.13;101929.16;5134452;27;20042;-64
2022/07/13 09:25:37;;;;;;;4.43;2.45;;;;;;;24.32;53.26;101927.47;5136396;27;20074;-64
2022/07/13 09:28:07;;;;;;;4.78;2.42;;;;;;;24.32;53.39;101924.78;5135667;27;20087;-64
2022/07/13 09:30:37;;;;;;;4.75;2.28;;;;;;;24.32;53.10;101922.13;5135330;27;20075;-64
2022/07/13 09:33:03;;;;;;;4.63;2.67;;;;;;;24.32;53.56;101919.47;5135721;27;20023;-64
2022/07/13 09:35:49;;;;;;;4.45;2.40;;;;;;;24.31;53.36;101929.28;5135963;27;20020;-64
2022/07/13 09:38:35;;;;;;;5.07;2.20;;;;;;;24.32;53.25;101930.94;5135255;27;20035;-64
2022/07/13 09:41:24;;;;;;;4.15;2.30;;;;;;;24.33;53.52;101926.50;5135495;27;20075;-64
2022/07/13 09:46:51;;;;;;;4.60;2.20;;;;;;;24.33;53.08;101922.00;5135817;27;20575;-64
2022/07/13 09:49:18;;;;;;;5.35;2.40;;;;;;;24.33;53.61;101921.16;5135560;27;20046;-64
2022/07/13 09:51:44;;;;;;;3.85;2.17;;;;;;;24.32;53.49;101917.63;5134607;27;20027;-64
2022/07/13 09:54:11;;;;;;;7.15;2.63;;;;;;;24.31;53.04;101923.97;5135165;27;20096;-64
2022/07/13 09:56:37;;;;;;;4.60;2.50;;;;;;;24.31;53.57;101921.28;5135541;27;20363;-64
2022/07/13 09:59:04;;;;;;;4.20;2.35;;;;;;;24.32;53.04;101930.13;5134554;27;20015;-64
2022/07/13 10:01:31;;;;;;;4.20;2.35;;;;;;;24.33;53.18;101934.47;5135402;27;20031;-64
2022/07/13 10:04:00;;;;;;;4.85;2.33;;;;;;;24.31;53.28;101928.44;5134852;27;20481;-64
2022/07/13 10:06:27;;;;;;;5.32;2.30;;;;;;;24.30;53.25;101935.59;5134263;27;20545;-65
2022/07/13 10:08:54;;;;;;;4.03;2.22;;;;;;;24.32;53.47;101927.47;5134897;27;20079;-64
2022/07/13 10:11:19;;;;;;;4.50;2.33;;;;;;;24.32;52.99;101940.78;5135054;27;20040;-64
2022/07/13 10:13:48;;;;;;;3.90;2.25;;;;;;;24.32;53.37;101932.78;5134309;27;20027;-64
2022/07/13 10:16:13;;;;;;;3.97;2.20;;;;;;;24.32;53.29;101938.94;5134767;27;20026;-64
2022/07/13 10:18:41;;;;;;;4.30;2.33;;;;;;;24.32;52.99;101938.13;5134172;27;20031;-64
2022/07/13 10:21:12;;;;;;;5.32;2.20;;;;;;;24.31;53.32;101934.63;5134333;27;20026;-64
2022/07/13 10:23:39;;;;;;;5.63;2.60;;;;;;;24.32;52.91;101940.78;5134984;27;20035;-64
2022/07/13 10:26:25;;;;;;;3.92;2.20;;;;;;;24.31;53.30;101937.28;5133535;27;20019;-64
2022/07/13 10:29:10;;;;;;;3.85;2.08;;;;;;;24.30;52.91;101943.59;5134693;27;20058;-65
2022/07/13 10:31:38;;;;;;;4.95;2.40;;;;;;;24.32;52.98;101940.78;5134669;27;20397;-65
2022/07/13 10:34:05;;;;;;;4.95;2.35;;;;;;;24.32;52.94;101940.78;5133839;27;20019;-64
2022/07/13 10:36:49;;;;;;;4.55;2.30;;;;;;;24.31;53.26;101942.59;5134516;27;20027;-64
2022/07/13 10:39:16;;;;;;;5.05;2.28;;;;;;;24.32;53.10;101946.09;5134616;27;20045;-65
2022/07/13 10:42:10;;;;;;;3.97;2.28;;;;;;;24.32;53.08;101946.09;5133765;27;20027;-64
2022/07/13 10:44:42;;;;;;;4.95;2.53;;;;;;;24.31;53.34;101949.72;5134668;27;20062;-64
2022/07/13 10:47:11;;;;;;;4.90;2.30;;;;;;;24.31;53.00;101944.41;5133454;27;20546;-64
2022/07/13 10:49:46;;;;;;;4.75;2.13;;;;;;;24.31;53.00;101950.59;5134576;27;20046;-64
2022/07/13 10:52:21;;;;;;;3.67;1.90;;;;;;;24.31;53.12;101953.25;5134153;27;20027;-64
2022/07/13 10:55:02;;;;;;;4.10;2.30;;;;;;;24.31;52.92;101949.72;5133622;27;20035;-64
2022/07/13 10:57:27;;;;;;;4.53;2.10;;;;;;;24.30;53.04;101954.22;5134122;27;20374;-64
2022/07/13 11:00:00;;;;;;;4.13;2.13;;;;;;;24.30;53.20;101950.75;5133967;27;20023;-65
2022/07/13 11:02:48;;;;;;;4.10;2.10;;;;;;;24.30;53.37;101948.91;5133493;27;20371;-64
2022/07/13 11:05:17;;;;;;;3.88;2.22;;;;;;;24.31;53.34;101963.06;5133729;27;20031;-65
2022/07/13 11:07:46;;;;;;;3.85;2.20;;;;;;;24.29;52.83;101957.03;5134369;27;20035;-64
2022/07/13 11:10:26;;;;;;;3.80;2.10;;;;;;;24.29;53.00;101962.38;5133757;27;20099;-65
2022/07/13 11:13:04;;;;;;;3.90;2.10;;;;;;;24.26;53.34;101959.00;5133610;27;20026;-64
2022/07/13 11:15:46;;;;;;;4.53;2.25;;;;;;;24.26;53.09;101955.50;5133114;27;20159;-67
2022/07/13 11:18:21;;;;;;;6.15;2.03;;;;;;;24.25;53.05;101959.13;5133827;27;20046;-65
2022/07/13 11:21:29;;;;;;;6.30;2.20;;;;;;;24.24;53.29;101958.31;5133946;27;20027;-66
2022/07/13 11:26:51;;;;;;;5.90;2.42;;;;;;;24.29;53.46;101954.38;5101841;27;20099;-69
2022/07/13 11:29:38;;;;;;;6.20;2.10;;;;;;;24.28;54.01;101945.56;5133135;27;20031;-68
2022/07/13 11:32:05;;;;;;;5.10;2.00;;;;;;;24.33;53.61;101945.13;5132652;27;20034;-70
2022/07/13 11:34:30;;;;;;;3.63;2.03;;;;;;;24.38;53.78;101953.53;5134031;27;20110;-69
2022/07/13 11:36:58;;;;;;;4.93;2.30;;;;;;;24.41;53.37;101956.75;5132991;27;20127;-73
2022/07/13 11:39:31;;;;;;;4.40;2.58;;;;;;;24.46;53.29;101951.00;5133887;28;20092;-70